Time;durP1;ratioP1;P1;durP2;ratioP2;P2;SDS_P1;SDS_P2;PMS_P1;PMS_P2;Temp;Humidity;BMP_temperature;BMP_pressure;BME280_temperature;BME280_humidity;BME280_pressure;Samples;Min_cycle;Max_cycle;Signal;HPM_P1;HPM_P2
2021/10/09 00:00:33;;;;;;;17.70;15.80;;;10.10;99.90;;;;;;5056387;28;20291;-57
2021/10/09 00:02:59;;;;;;;18.77;16.00;;;10.10;99.90;;;;;;5055972;28;20172;-58
2021/10/09 00:05:24;;;;;;;23.73;18.30;;;10.00;99.90;;;;;;5056002;28;20207;-56
2021/10/09 00:07:50;;;;;;;23.53;19.33;;;10.10;99.90;;;;;;5056001;28;20195;-58
2021/10/09 00:10:25;;;;;;;20.90;17.27;;;10.10;99.90;;;;;;5067035;28;20186;-58
2021/10/09 00:12:51;;;;;;;24.20;18.83;;;10.10;99.90;;;;;;5058258;28;20167;-58
2021/10/09 00:15:16;;;;;;;21.30;17.60;;;10.10;99.90;;;;;;5076000;28;20414;-58
2021/10/09 00:17:43;;;;;;;26.10;19.50;;;10.00;99.90;;;;;;5076075;28;20167;-56
2021/10/09 00:20:09;;;;;;;18.67;16.37;;;9.90;99.90;;;;;;5075802;28;20698;-57
2021/10/09 00:22:34;;;;;;;21.47;17.70;;;9.90;99.90;;;;;;5057782;28;20497;-58
2021/10/09 00:25:00;;;;;;;20.37;15.80;;;9.90;99.90;;;;;;5075469;28;20942;-57
2021/10/09 00:27:26;;;;;;;21.00;16.97;;;9.80;99.90;;;;;;5075607;28;20223;-58
2021/10/09 00:29:51;;;;;;;21.40;18.17;;;9.80;99.90;;;;;;5075691;28;20532;-56
2021/10/09 00:32:17;;;;;;;22.40;19.70;;;9.90;99.90;;;;;;5072757;28;20248;-57
2021/10/09 00:34:42;;;;;;;22.10;18.67;;;9.80;99.90;;;;;;5066103;28;20198;-57
2021/10/09 00:37:08;;;;;;;21.83;17.20;;;9.80;99.90;;;;;;5075450;28;20169;-58
2021/10/09 00:39:34;;;;;;;17.90;15.40;;;9.70;99.90;;;;;;5075712;28;20215;-54
2021/10/09 00:41:59;;;;;;;20.67;17.67;;;9.70;99.90;;;;;;5075769;28;20688;-54
2021/10/09 00:44:25;;;;;;;22.00;18.77;;;9.60;99.90;;;;;;5075853;28;20634;-53
2021/10/09 00:47:01;;;;;;;24.13;18.07;;;9.60;99.90;;;;;;5075989;28;20219;-56
2021/10/09 00:49:28;;;;;;;24.33;20.90;;;9.60;99.90;;;;;;5076068;28;20238;-57
2021/10/09 00:51:55;;;;;;;24.80;18.93;;;9.70;99.90;;;;;;5075493;28;20450;-57
2021/10/09 00:54:21;;;;;;;27.30;21.60;;;9.70;99.90;;;;;;5075430;28;20406;-57
2021/10/09 00:56:48;;;;;;;26.73;20.20;;;9.60;99.90;;;;;;5075240;28;20434;-58
2021/10/09 00:59:15;;;;;;;22.50;18.37;;;9.70;99.90;;;;;;5075041;28;20800;-58
2021/10/09 01:01:41;;;;;;;28.40;20.23;;;9.70;99.90;;;;;;5075410;28;20905;-57
2021/10/09 01:04:08;;;;;;;24.80;19.80;;;9.70;99.90;;;;;;5075007;28;20407;-58
2021/10/09 01:06:34;;;;;;;25.70;20.17;;;9.70;99.90;;;;;;5074868;28;20935;-57
2021/10/09 01:09:02;;;;;;;26.90;21.43;;;9.70;99.90;;;;;;5074979;28;20492;-55
2021/10/09 01:11:29;;;;;;;23.27;20.70;;;9.60;99.90;;;;;;5074549;28;20892;-58
2021/10/09 01:13:55;;;;;;;24.63;20.50;;;9.60;99.90;;;;;;5074095;28;20909;-58
2021/10/09 01:16:23;;;;;;;25.70;21.17;;;9.60;99.90;;;;;;5074927;28;20404;-54
2021/10/09 01:18:50;;;;;;;25.37;22.03;;;9.60;99.90;;;;;;5074545;28;20411;-58
2021/10/09 01:21:16;;;;;;;20.50;18.30;;;9.50;99.90;;;;;;5074963;28;20881;-57
2021/10/09 01:23:42;;;;;;;20.27;17.77;;;9.60;99.90;;;;;;5074474;28;20433;-58
2021/10/09 01:26:09;;;;;;;26.40;20.43;;;9.50;99.90;;;;;;5074200;28;20950;-58
2021/10/09 01:28:41;;;;;;;25.90;21.73;;;9.50;99.90;;;;;;5074499;28;20193;-58
2021/10/09 01:31:07;;;;;;;26.33;20.97;;;9.50;99.90;;;;;;5074800;28;20450;-57
2021/10/09 01:33:32;;;;;;;27.07;21.50;;;9.50;99.90;;;;;;5074414;28;20435;-56
2021/10/09 01:35:58;;;;;;;21.50;18.73;;;9.40;99.90;;;;;;5074176;28;20215;-58
2021/10/09 01:38:27;;;;;;;23.00;20.60;;;9.40;99.90;;;;;;5074323;28;20164;-57
2021/10/09 01:40:53;;;;;;;21.97;18.63;;;9.30;99.90;;;;;;5073805;28;20454;-58
2021/10/09 01:43:20;;;;;;;22.03;19.60;;;9.30;99.90;;;;;;5074504;28;20495;-56
2021/10/09 01:45:47;;;;;;;26.07;20.93;;;9.30;99.90;;;;;;5051896;28;20954;-57
2021/10/09 01:48:15;;;;;;;21.90;19.03;;;9.20;99.90;;;;;;5054378;28;20451;-58
2021/10/09 01:50:41;;;;;;;24.77;19.50;;;9.20;99.90;;;;;;5054092;28;20419;-57
2021/10/09 01:53:07;;;;;;;18.77;16.77;;;9.20;99.90;;;;;;5054044;28;20411;-57
2021/10/09 01:55:37;;;;;;;19.70;17.70;;;9.20;99.90;;;;;;5053768;28;20429;-58
2021/10/09 01:58:04;;;;;;;22.03;19.77;;;9.20;99.90;;;;;;5053988;28;20415;-58
2021/10/09 02:00:30;;;;;;;21.10;18.10;;;9.20;99.90;;;;;;5053709;28;20473;-57
2021/10/09 02:03:00;;;;;;;27.10;19.00;;;9.20;99.90;;;;;;5053870;28;20805;-57
2021/10/09 02:05:26;;;;;;;24.80;20.60;;;9.30;99.90;;;;;;5053885;28;20750;-56
2021/10/09 02:07:52;;;;;;;21.37;18.60;;;9.30;99.90;;;;;;5053717;28;20538;-54
2021/10/09 02:10:18;;;;;;;20.73;17.77;;;9.40;99.90;;;;;;5064541;28;20193;-59
2021/10/09 02:12:43;;;;;;;20.53;17.83;;;9.30;99.90;;;;;;5068917;28;20667;-53
2021/10/09 02:15:22;;;;;;;21.37;18.27;;;9.20;99.90;;;;;;5062292;28;20181;-52
2021/10/09 02:18:08;;;;;;;28.67;19.80;;;9.20;99.90;;;;;;5053860;28;20152;-55
2021/10/09 02:26:03;;;;;;;22.13;19.53;;;9.10;99.90;;;;;;5053388;28;20390;-56
2021/10/09 02:28:28;;;;;;;26.43;19.00;;;9.00;99.90;;;;;;5053558;28;20453;-57
2021/10/09 02:30:54;;;;;;;23.87;19.37;;;8.90;99.90;;;;;;5053371;28;21023;-58
2021/10/09 02:33:21;;;;;;;28.23;23.00;;;9.00;99.90;;;;;;5053266;28;20214;-56
2021/10/09 02:35:46;;;;;;;30.60;24.40;;;9.00;99.90;;;;;;5053102;28;20403;-58
2021/10/09 02:38:12;;;;;;;22.50;17.77;;;9.00;99.90;;;;;;5053327;28;20919;-57
2021/10/09 02:40:40;;;;;;;21.67;17.83;;;9.00;99.90;;;;;;5069105;28;20342;-57
2021/10/09 02:43:06;;;;;;;22.07;19.07;;;9.00;99.90;;;;;;5073292;28;20411;-57
2021/10/09 02:45:31;;;;;;;25.23;21.20;;;8.90;99.90;;;;;;5073272;28;20402;-55
2021/10/09 02:47:59;;;;;;;24.87;19.33;;;9.00;99.90;;;;;;5073245;28;20324;-56
2021/10/09 02:50:25;;;;;;;23.00;19.43;;;8.90;99.90;;;;;;5073042;28;20187;-57
2021/10/09 02:52:50;;;;;;;26.10;19.30;;;8.80;99.90;;;;;;5073886;28;20904;-56
2021/10/09 02:55:19;;;;;;;26.20;19.47;;;8.80;99.90;;;;;;5072827;28;20490;-58
2021/10/09 02:57:47;;;;;;;23.73;20.53;;;8.80;99.90;;;;;;5072992;28;20558;-55
2021/10/09 03:00:14;;;;;;;26.20;20.30;;;8.70;99.90;;;;;;5054871;28;20824;-57
2021/10/09 03:02:40;;;;;;;29.93;22.40;;;8.80;99.90;;;;;;5072904;28;20421;-54
2021/10/09 03:05:07;;;;;;;25.47;21.27;;;8.70;99.90;;;;;;5072823;28;20414;-58
2021/10/09 03:07:33;;;;;;;23.60;21.00;;;8.70;99.90;;;;;;5072743;28;20463;-58
2021/10/09 03:09:58;;;;;;;23.77;19.50;;;8.80;99.90;;;;;;5073037;28;20422;-58
2021/10/09 03:12:25;;;;;;;29.63;21.70;;;8.80;99.90;;;;;;5054661;28;20181;-57
2021/10/09 03:14:51;;;;;;;20.20;17.77;;;8.90;99.90;;;;;;5072932;28;20164;-57
2021/10/09 03:17:17;;;;;;;21.53;18.77;;;8.80;99.90;;;;;;5072789;28;20497;-58
2021/10/09 03:19:43;;;;;;;23.07;20.10;;;8.80;99.90;;;;;;5072662;28;20516;-58
2021/10/09 03:22:09;;;;;;;24.30;21.70;;;8.80;99.90;;;;;;5072933;28;20602;-58
2021/10/09 03:24:34;;;;;;;21.40;17.17;;;8.80;99.90;;;;;;5072808;28;20764;-58
2021/10/09 03:27:00;;;;;;;24.13;19.80;;;8.80;99.90;;;;;;5072538;28;20566;-57
2021/10/09 03:29:26;;;;;;;22.50;18.30;;;8.70;99.90;;;;;;5072989;28;20193;-58
2021/10/09 03:31:52;;;;;;;24.27;18.60;;;8.70;99.90;;;;;;5072773;28;20168;-58
2021/10/09 03:34:17;;;;;;;22.13;18.90;;;8.70;99.90;;;;;;5072765;28;20406;-57
2021/10/09 03:36:43;;;;;;;22.80;17.73;;;8.70;99.90;;;;;;5073742;28;20174;-54
2021/10/09 03:39:14;;;;;;;24.53;19.90;;;8.60;99.90;;;;;;5060799;28;20206;-57
2021/10/09 03:41:44;;;;;;;21.17;18.67;;;8.50;99.90;;;;;;5076281;28;20628;-56
2021/10/09 03:44:10;;;;;;;22.17;17.97;;;8.50;99.90;;;;;;5076316;28;20405;-55
2021/10/09 03:47:16;;;;;;;18.97;16.13;;;8.60;99.90;;;;;;5076401;28;20417;-57
2021/10/09 03:54:42;;;;;;;19.87;16.70;;;8.60;99.90;;;;;;5076731;28;20389;-57
2021/10/09 03:57:08;;;;;;;24.40;19.50;;;8.60;99.90;;;;;;5075885;28;20404;-58
2021/10/09 03:59:33;;;;;;;20.30;17.93;;;8.60;99.90;;;;;;5076234;28;20667;-58
2021/10/09 04:01:59;;;;;;;16.70;14.70;;;8.60;99.90;;;;;;5076028;28;20216;-56
2021/10/09 04:04:27;;;;;;;18.73;16.83;;;8.70;99.90;;;;;;5075710;28;20170;-58
2021/10/09 04:06:53;;;;;;;19.37;16.83;;;8.60;99.90;;;;;;5075923;28;20271;-57
2021/10/09 04:09:18;;;;;;;23.30;16.57;;;8.50;99.90;;;;;;5075975;28;20449;-57
2021/10/09 04:11:44;;;;;;;19.20;16.40;;;8.50;99.90;;;;;;5075865;28;20245;-57
2021/10/09 04:14:10;;;;;;;20.30;18.10;;;8.50;99.90;;;;;;5076211;28;20164;-58
2021/10/09 04:16:35;;;;;;;16.00;14.30;;;8.50;99.90;;;;;;5075827;28;20163;-57
2021/10/09 04:19:01;;;;;;;16.37;14.23;;;8.50;99.90;;;;;;5075845;28;20618;-58
2021/10/09 04:21:27;;;;;;;16.77;14.73;;;8.60;99.90;;;;;;5075654;28;20192;-58
2021/10/09 04:23:52;;;;;;;18.57;16.03;;;8.60;99.90;;;;;;5075826;28;20520;-58
2021/10/09 04:26:18;;;;;;;17.07;14.97;;;8.60;99.90;;;;;;5075383;28;20164;-57
2021/10/09 04:28:43;;;;;;;19.10;14.83;;;8.60;99.90;;;;;;5076106;28;20167;-58
2021/10/09 04:31:09;;;;;;;18.80;13.70;;;8.60;99.90;;;;;;5075397;28;20274;-56
2021/10/09 04:33:34;;;;;;;17.03;14.80;;;8.60;99.90;;;;;;5075498;28;20169;-55
2021/10/09 04:36:00;;;;;;;18.13;14.80;;;8.60;99.90;;;;;;5075495;28;20211;-58
2021/10/09 04:38:26;;;;;;;14.83;13.43;;;8.60;99.90;;;;;;5075504;28;20194;-55
2021/10/09 04:40:51;;;;;;;17.03;14.87;;;8.60;99.90;;;;;;5074739;28;20262;-58
2021/10/09 04:43:17;;;;;;;15.17;13.50;;;8.60;99.90;;;;;;5075227;28;20167;-57
2021/10/09 04:45:43;;;;;;;18.60;15.70;;;8.60;99.90;;;;;;5075122;28;20581;-57
2021/10/09 04:48:08;;;;;;;17.00;14.67;;;8.50;99.90;;;;;;5075100;28;20198;-58
2021/10/09 04:50:34;;;;;;;16.97;15.07;;;8.50;99.90;;;;;;5074904;28;20577;-58
2021/10/09 04:53:00;;;;;;;19.63;15.27;;;8.50;99.90;;;;;;5075443;28;20176;-58
2021/10/09 04:55:25;;;;;;;19.40;15.47;;;8.50;99.90;;;;;;5075107;28;20159;-57
2021/10/09 04:57:52;;;;;;;19.00;16.63;;;8.50;99.90;;;;;;5074930;28;20182;-58
2021/10/09 05:00:18;;;;;;;19.17;16.10;;;8.50;99.90;;;;;;5075102;28;20191;-56
2021/10/09 05:02:44;;;;;;;18.37;16.47;;;8.50;99.90;;;;;;5074983;28;20425;-57
2021/10/09 05:05:09;;;;;;;16.90;15.20;;;8.50;99.90;;;;;;5073596;28;20186;-57
2021/10/09 05:07:36;;;;;;;19.27;16.90;;;8.50;99.90;;;;;;5065610;28;20207;-57
2021/10/09 05:10:03;;;;;;;17.83;14.67;;;8.40;99.90;;;;;;5063930;28;20195;-53
2021/10/09 05:12:28;;;;;;;16.80;15.00;;;8.50;99.90;;;;;;5074423;28;20397;-51
2021/10/09 05:14:54;;;;;;;20.50;17.23;;;8.40;99.90;;;;;;5074879;28;20786;-58
2021/10/09 05:17:19;;;;;;;20.40;16.70;;;8.40;99.90;;;;;;5074698;28;20631;-54
2021/10/09 05:19:45;;;;;;;16.67;14.93;;;8.40;99.90;;;;;;5074302;28;20195;-58
2021/10/09 05:22:11;;;;;;;19.20;16.30;;;8.40;99.90;;;;;;5074546;28;20189;-55
2021/10/09 05:24:36;;;;;;;18.07;15.30;;;8.40;99.90;;;;;;5074986;28;20695;-56
2021/10/09 05:27:02;;;;;;;17.70;15.80;;;8.40;99.90;;;;;;5074028;28;20193;-58
2021/10/09 05:29:30;;;;;;;21.80;18.57;;;8.40;99.90;;;;;;5074237;28;20210;-57
2021/10/09 05:32:03;;;;;;;17.10;14.47;;;8.30;99.90;;;;;;5074520;28;20191;-58
2021/10/09 05:34:29;;;;;;;17.97;16.10;;;8.30;99.90;;;;;;5074024;28;20384;-55
2021/10/09 05:36:55;;;;;;;20.63;17.70;;;8.30;99.90;;;;;;5074742;28;20769;-57
2021/10/09 05:39:20;;;;;;;18.53;16.53;;;8.30;99.90;;;;;;5074024;28;20467;-56
2021/10/09 05:41:46;;;;;;;20.77;18.43;;;8.40;99.90;;;;;;5072644;28;20168;-58
2021/10/09 05:44:11;;;;;;;20.93;17.67;;;8.30;99.90;;;;;;5056039;28;20182;-56
2021/10/09 05:46:37;;;;;;;23.40;18.80;;;8.30;99.90;;;;;;5054355;28;20171;-57
2021/10/09 05:49:03;;;;;;;21.07;18.40;;;8.30;99.90;;;;;;5054077;28;20205;-53
2021/10/09 05:51:42;;;;;;;20.40;15.67;;;8.30;99.90;;;;;;5053964;28;20402;-53
2021/10/09 05:54:14;;;;;;;20.43;17.00;;;8.40;99.90;;;;;;5055004;28;20147;-58
2021/10/09 05:57:00;;;;;;;23.43;16.80;;;8.30;99.90;;;;;;5054384;28;20424;-53
2021/10/09 06:48:12;;;;;;;21.70;17.07;;;8.90;99.90;;;;;;5081966;28;20219;-57
2021/10/09 07:01:11;;;;;;;26.67;20.93;;;9.20;99.90;;;;;;5052999;28;20944;-57
2021/10/09 07:03:37;;;;;;;20.33;17.60;;;9.30;99.90;;;;;;5053067;28;20412;-58
2021/10/09 07:06:03;;;;;;;19.10;16.80;;;9.30;99.90;;;;;;5053020;28;20245;-59
2021/10/09 07:08:28;;;;;;;21.17;19.00;;;9.40;99.90;;;;;;5052823;28;20196;-53
2021/10/09 07:10:54;;;;;;;19.37;17.13;;;9.40;99.90;;;;;;5069036;28;20446;-55
2021/10/09 07:13:20;;;;;;;18.10;16.03;;;9.40;99.90;;;;;;5076745;28;20179;-58
2021/10/09 07:15:45;;;;;;;19.80;17.27;;;9.50;99.90;;;;;;5076961;28;20192;-57
2021/10/09 07:18:12;;;;;;;18.47;16.43;;;9.60;99.90;;;;;;5076781;28;20200;-57
2021/10/09 07:20:39;;;;;;;20.00;16.87;;;9.80;99.90;;;;;;5076611;28;20186;-57
2021/10/09 07:23:07;;;;;;;20.60;18.17;;;9.90;99.90;;;;;;5077012;28;20408;-54
2021/10/09 07:25:34;;;;;;;20.53;18.33;;;10.10;99.90;;;;;;5076535;28;20422;-58
2021/10/09 07:28:00;;;;;;;22.33;17.40;;;10.20;99.90;;;;;;5076209;28;20448;-58
2021/10/09 07:30:26;;;;;;;21.93;19.53;;;10.30;99.90;;;;;;5076477;28;20426;-58
2021/10/09 07:32:52;;;;;;;21.03;18.53;;;10.30;99.90;;;;;;5076405;28;20404;-56
2021/10/09 07:35:17;;;;;;;20.53;18.33;;;10.30;99.90;;;;;;5076699;28;20890;-52
2021/10/09 07:37:43;;;;;;;27.00;21.77;;;10.40;99.90;;;;;;5076808;28;20166;-55
2021/10/09 07:40:10;;;;;;;21.43;19.17;;;10.50;99.90;;;;;;5076120;28;20214;-53
2021/10/09 07:42:35;;;;;;;22.67;20.17;;;10.60;99.90;;;;;;5076152;28;20180;-57
2021/10/09 07:45:01;;;;;;;20.03;17.90;;;10.60;99.90;;;;;;5068593;28;20404;-58
2021/10/09 07:47:27;;;;;;;22.10;18.60;;;10.60;99.90;;;;;;5056232;28;20658;-58
2021/10/09 07:49:52;;;;;;;21.57;19.27;;;10.80;99.90;;;;;;5056459;28;20729;-57
2021/10/09 07:52:18;;;;;;;22.87;20.43;;;10.90;99.90;;;;;;5055919;28;20681;-56
2021/10/09 07:54:43;;;;;;;25.40;21.47;;;10.80;99.90;;;;;;5056122;28;20159;-58
2021/10/09 07:57:09;;;;;;;22.47;19.53;;;11.00;99.90;;;;;;5055856;28;20177;-58
2021/10/09 07:59:35;;;;;;;21.77;19.57;;;11.10;99.90;;;;;;5056214;28;20189;-57
2021/10/09 08:02:01;;;;;;;21.90;19.63;;;11.20;99.90;;;;;;5056212;28;20250;-58
2021/10/09 08:04:30;;;;;;;19.73;17.57;;;11.30;99.90;;;;;;5056124;28;20195;-58
2021/10/09 08:06:56;;;;;;;24.50;20.00;;;11.40;99.90;;;;;;5055428;28;20486;-58
2021/10/09 08:09:21;;;;;;;23.00;19.87;;;11.50;99.90;;;;;;5059378;28;20425;-58
2021/10/09 08:11:47;;;;;;;25.67;21.13;;;11.30;99.90;;;;;;5075510;28;20519;-58
2021/10/09 08:14:13;;;;;;;22.17;19.70;;;11.30;99.90;;;;;;5075942;28;20168;-57
2021/10/09 08:16:38;;;;;;;22.07;18.63;;;11.40;99.90;;;;;;5075635;28;20274;-58
2021/10/09 08:19:04;;;;;;;20.93;18.50;;;11.60;99.90;;;;;;5075769;28;20165;-58
2021/10/09 08:21:32;;;;;;;21.10;18.63;;;11.60;99.90;;;;;;5075511;28;20167;-57
2021/10/09 08:39:57;;;;;;;19.63;17.63;;;11.90;99.90;;;;;;5075555;28;21060;-54
2021/10/09 08:42:22;;;;;;;21.47;19.20;;;12.10;99.90;;;;;;5075288;22;20531;-56
2021/10/09 08:44:48;;;;;;;24.23;19.93;;;12.20;99.90;;;;;;5054974;28;20535;-58
2021/10/09 08:47:13;;;;;;;23.97;19.33;;;12.10;99.90;;;;;;5055337;28;20198;-53
2021/10/09 08:49:39;;;;;;;21.13;18.13;;;12.20;99.90;;;;;;5055052;28;20645;-56
2021/10/09 08:52:05;;;;;;;21.07;18.80;;;12.20;99.90;;;;;;5054780;28;20221;-57
2021/10/09 08:54:35;;;;;;;19.00;17.00;;;12.00;99.90;;;;;;5055061;28;20241;-55
2021/10/09 08:57:15;;;;;;;22.07;18.77;;;12.00;99.90;;;;;;5054710;28;20750;-56
2021/10/09 09:00:04;;;;;;;25.60;18.70;;;12.20;99.90;;;;;;5054625;28;20450;-53
2021/10/09 09:02:42;;;;;;;21.17;17.07;;;12.20;99.90;;;;;;5054788;28;20423;-56
2021/10/09 09:08:00;;;;;;;21.30;19.00;;;12.30;99.90;;;;;;5055224;28;20436;-55
2021/10/09 09:25:26;;;;;;;22.20;18.40;;;12.30;99.90;;;;;;5034798;28;20370;-57
2021/10/09 09:30:43;;;;;;;23.17;18.63;;;12.80;99.90;;;;;;5041707;28;20424;-56
2021/10/09 09:40:58;;;;;;;21.57;19.07;;;12.80;99.90;;;;;;5050705;28;21031;-58
2021/10/09 09:43:37;;;;;;;23.83;18.27;;;12.90;99.90;;;;;;5053675;28;20520;-55
2021/10/09 09:46:17;;;;;;;18.77;16.77;;;13.10;99.90;;;;;;5054661;28;20513;-58
2021/10/09 09:48:45;;;;;;;25.20;19.47;;;13.10;99.90;;;;;;5053990;28;20430;-57
2021/10/09 09:51:13;;;;;;;23.60;19.97;;;13.30;99.90;;;;;;5054015;28;20480;-57
2021/10/09 09:53:40;;;;;;;21.90;19.00;;;13.40;99.90;;;;;;5054055;28;20405;-58
2021/10/09 09:56:10;;;;;;;22.77;17.03;;;13.60;99.90;;;;;;5053222;28;20406;-57
2021/10/09 09:58:38;;;;;;;21.00;18.50;;;13.70;99.90;;;;;;5054084;28;20874;-58
2021/10/09 10:01:07;;;;;;;22.70;18.63;;;13.80;99.90;;;;;;5053817;28;20465;-58
2021/10/09 10:03:33;;;;;;;23.00;18.60;;;13.70;99.90;;;;;;5053821;28;20414;-58
2021/10/09 10:06:00;;;;;;;21.27;18.97;;;13.90;99.90;;;;;;5053502;28;20878;-57
2021/10/09 10:08:26;;;;;;;19.20;17.03;;;14.10;99.90;;;;;;5053268;28;20542;-56
2021/10/09 10:10:55;;;;;;;21.53;17.20;;;14.20;99.90;;;;;;5052891;28;20487;-56
2021/10/09 10:13:28;;;;;;;22.00;19.80;;;14.30;99.90;;;;;;5053785;28;20404;-57
2021/10/09 10:15:55;;;;;;;23.87;18.87;;;14.40;99.90;;;;;;5053567;28;20411;-57
2021/10/09 10:18:45;;;;;;;20.53;17.13;;;14.50;99.90;;;;;;5053583;28;20502;-58
2021/10/09 10:21:31;;;;;;;19.60;17.40;;;14.70;99.90;;;;;;5053175;28;20418;-56
2021/10/09 10:23:56;;;;;;;17.77;16.17;;;14.60;99.90;;;;;;5042793;28;20781;-58
2021/10/09 10:26:31;;;;;;;19.47;15.30;;;14.60;99.90;;;;;;5052763;28;20413;-56
2021/10/09 10:28:56;;;;;;;18.33;16.43;;;14.70;99.90;;;;;;5053052;28;20196;-57
2021/10/09 10:31:23;;;;;;;17.60;15.23;;;14.90;99.90;;;;;;5053166;28;20452;-55
2021/10/09 10:33:59;;;;;;;16.57;14.83;;;15.10;99.90;;;;;;5052940;28;20174;-55
2021/10/09 10:36:36;;;;;;;19.27;15.90;;;15.20;99.90;;;;;;5053344;28;20385;-58
2021/10/09 10:39:03;;;;;;;18.20;15.20;;;15.10;99.90;;;;;;5055299;28;20388;-56
2021/10/09 10:41:45;;;;;;;14.90;13.27;;;15.20;99.90;;;;;;5052455;28;20515;-58
2021/10/09 10:47:44;;;;;;;16.03;13.20;;;15.10;99.90;;;;;;5044296;28;20541;-57
2021/10/09 10:53:36;;;;;;;18.87;13.73;;;15.40;99.90;;;;;;5052861;28;20384;-57
2021/10/09 10:56:08;;;;;;;12.77;11.47;;;15.50;99.90;;;;;;5040176;28;20501;-54
2021/10/09 10:58:35;;;;;;;15.90;12.30;;;15.70;99.90;;;;;;5050990;28;20838;-56
2021/10/09 11:01:20;;;;;;;13.13;11.80;;;16.10;99.90;;;;;;5052901;28;20431;-54
2021/10/09 11:03:50;;;;;;;12.53;11.00;;;17.30;99.90;;;;;;5053085;28;20412;-54
2021/10/09 11:06:17;;;;;;;12.40;11.10;;;18.60;99.90;;;;;;5052514;28;20397;-57
2021/10/09 11:08:44;;;;;;;13.50;11.57;;;19.40;98.30;;;;;;5052661;28;20445;-56
2021/10/09 11:11:10;;;;;;;12.20;11.00;;;20.50;97.10;;;;;;5052369;28;20467;-57
2021/10/09 11:13:36;;;;;;;11.80;10.63;;;20.80;96.70;;;;;;5052162;28;20467;-57
2021/10/09 11:16:03;;;;;;;15.43;11.90;;;20.90;96.00;;;;;;5052501;28;20397;-58
2021/10/09 11:18:29;;;;;;;12.20;11.00;;;22.20;94.50;;;;;;5052859;28;20420;-56
2021/10/09 11:21:02;;;;;;;13.63;10.20;;;23.40;92.20;;;;;;5051700;28;20425;-54
2021/10/09 11:23:27;;;;;;;12.37;11.10;;;23.90;90.50;;;;;;5052881;28;20167;-56
2021/10/09 11:25:54;;;;;;;11.60;10.43;;;24.70;86.00;;;;;;5045809;28;20439;-57
2021/10/09 11:28:22;;;;;;;11.70;10.50;;;24.60;85.80;;;;;;5033591;28;20210;-57
2021/10/09 11:30:48;;;;;;;12.73;10.57;;;23.60;85.50;;;;;;5032756;28;20434;-56
2021/10/09 11:33:13;;;;;;;12.10;10.90;;;23.50;86.80;;;;;;5032572;28;20869;-55
2021/10/09 11:35:41;;;;;;;14.53;11.53;;;24.30;83.00;;;;;;5033004;28;20598;-54
2021/10/09 11:38:28;;;;;;;10.60;9.47;;;23.70;84.00;;;;;;5032550;28;20168;-57
2021/10/09 11:43:28;;;;;;;12.40;11.20;;;24.80;80.20;;;;;;5037192;28;20440;-54
2021/10/09 11:46:05;;;;;;;11.47;10.27;;;24.80;78.70;;;;;;5043355;28;20270;-55
2021/10/09 11:54:35;;;;;;;11.20;10.10;;;26.20;76.10;;;;;;5032543;28;20382;-57
2021/10/09 11:57:03;;;;;;;9.43;8.53;;;25.60;75.90;;;;;;5032327;28;20386;-58
2021/10/09 11:59:37;;;;;;;11.63;9.97;;;26.20;77.00;;;;;;5035593;28;20433;-57
2021/10/09 12:02:04;;;;;;;11.97;10.87;;;25.80;75.10;;;;;;5036041;28;20871;-57
2021/10/09 12:04:29;;;;;;;11.80;10.67;;;25.60;76.40;;;;;;5035839;28;20470;-56
2021/10/09 12:07:01;;;;;;;11.83;9.40;;;26.00;73.90;;;;;;5036200;28;20942;-56
2021/10/09 12:09:45;;;;;;;11.63;10.50;;;26.50;74.10;;;;;;5035977;28;20163;-57
2021/10/09 12:12:19;;;;;;;16.33;10.10;;;27.20;69.40;;;;;;5037298;28;20430;-57
2021/10/09 12:14:50;;;;;;;12.53;11.33;;;26.40;70.70;;;;;;5055763;28;20428;-58
2021/10/09 12:17:16;;;;;;;11.10;10.00;;;25.60;70.70;;;;;;5055843;28;20398;-55
2021/10/09 12:19:42;;;;;;;12.10;11.00;;;25.80;71.60;;;;;;5054792;28;20413;-57
2021/10/09 12:22:12;;;;;;;11.70;10.50;;;25.20;73.10;;;;;;5054967;28;20429;-58
2021/10/09 12:24:48;;;;;;;11.10;10.00;;;25.60;73.80;;;;;;5055624;28;20163;-57
2021/10/09 12:27:19;;;;;;;13.33;10.87;;;26.00;71.20;;;;;;5055239;28;20533;-57
2021/10/09 12:30:08;;;;;;;13.87;10.10;;;26.10;69.60;;;;;;5055590;28;20386;-54
2021/10/09 12:32:46;;;;;;;11.53;10.37;;;25.70;71.20;;;;;;5055639;28;20925;-54
2021/10/09 12:35:23;;;;;;;11.27;8.63;;;25.50;72.30;;;;;;5055141;28;20909;-55
2021/10/09 12:38:09;;;;;;;12.60;10.60;;;26.90;69.60;;;;;;5055754;28;20716;-56
2021/10/09 12:40:53;;;;;;;12.70;9.30;;;25.00;71.40;;;;;;5054861;28;20443;-55
2021/10/09 12:43:20;;;;;;;13.07;9.83;;;25.50;72.40;;;;;;5055028;28;20807;-57
2021/10/09 12:45:46;;;;;;;13.60;10.40;;;25.60;70.30;;;;;;5055060;28;20416;-57
2021/10/09 12:48:13;;;;;;;11.13;9.70;;;24.50;72.10;;;;;;5055350;28;20449;-57
2021/10/09 12:50:41;;;;;;;10.53;9.23;;;24.60;73.40;;;;;;5054639;28;20246;-51
2021/10/09 12:53:07;;;;;;;11.03;9.93;;;24.80;73.80;;;;;;5054787;28;20413;-57
2021/10/09 12:55:35;;;;;;;9.23;8.43;;;25.90;70.50;;;;;;5054701;28;20463;-58
2021/10/09 12:58:08;;;;;;;11.37;10.33;;;25.40;70.50;;;;;;5054716;28;20409;-56
2021/10/09 13:00:36;;;;;;;10.73;9.50;;;26.00;69.00;;;;;;5054443;28;20382;-57
2021/10/09 13:03:03;;;;;;;10.40;9.40;;;25.70;70.10;;;;;;5054802;28;20803;-57
2021/10/09 13:05:30;;;;;;;10.87;8.43;;;26.70;68.00;;;;;;5054766;28;20468;-56
2021/10/09 13:08:00;;;;;;;12.00;10.60;;;27.20;66.90;;;;;;5055569;28;20448;-57
2021/10/09 13:10:28;;;;;;;11.10;10.10;;;27.50;64.20;;;;;;5053285;28;20396;-57
2021/10/09 13:12:54;;;;;;;11.57;10.40;;;26.30;66.70;;;;;;5054487;28;20413;-54
2021/10/09 13:15:20;;;;;;;10.60;9.50;;;26.40;67.80;;;;;;5054429;28;20401;-57
2021/10/09 13:17:48;;;;;;;13.03;11.33;;;26.00;67.80;;;;;;5054388;28;20632;-54
2021/10/09 13:20:14;;;;;;;11.03;9.77;;;25.30;68.80;;;;;;5054214;28;20462;-56
2021/10/09 13:22:40;;;;;;;11.90;10.80;;;24.30;71.90;;;;;;5054106;28;20511;-54
2021/10/09 13:25:06;;;;;;;9.77;8.47;;;24.80;70.40;;;;;;5054560;28;20880;-57
2021/10/09 13:27:32;;;;;;;11.00;8.53;;;25.10;70.40;;;;;;5053737;28;20248;-57
2021/10/09 13:29:59;;;;;;;10.23;9.30;;;26.10;69.30;;;;;;5054009;28;20500;-57
2021/10/09 13:32:25;;;;;;;10.27;9.23;;;27.50;66.40;;;;;;5053861;28;20198;-58
2021/10/09 13:34:50;;;;;;;9.83;8.93;;;26.20;66.00;;;;;;5053840;28;20412;-55
2021/10/09 13:37:25;;;;;;;11.07;9.40;;;26.60;67.00;;;;;;5054223;28;20182;-56
2021/10/09 13:39:53;;;;;;;10.27;9.10;;;25.90;67.30;;;;;;5054788;28;20607;-55
2021/10/09 13:42:19;;;;;;;9.90;8.63;;;26.10;65.90;;;;;;5053410;28;20461;-56
2021/10/09 13:44:45;;;;;;;8.63;7.90;;;25.70;67.50;;;;;;5053549;28;20409;-57
2021/10/09 13:47:10;;;;;;;10.63;9.63;;;25.40;67.80;;;;;;5053644;28;20437;-57
2021/10/09 13:49:37;;;;;;;11.87;9.73;;;26.10;68.00;;;;;;5053732;28;20193;-57
2021/10/09 13:52:03;;;;;;;9.53;8.53;;;26.00;66.70;;;;;;5054733;28;20209;-54
2021/10/09 13:54:28;;;;;;;10.10;9.10;;;25.00;68.60;;;;;;5050972;28;20902;-56
2021/10/09 13:56:54;;;;;;;9.40;8.33;;;26.80;66.20;;;;;;5053557;28;20170;-57
2021/10/09 13:59:19;;;;;;;11.07;9.87;;;26.50;65.20;;;;;;5053981;28;20170;-56
2021/10/09 14:01:45;;;;;;;10.40;8.90;;;25.00;67.10;;;;;;5053463;28;20194;-55
2021/10/09 14:04:11;;;;;;;11.07;8.90;;;24.00;70.90;;;;;;5053320;28;20198;-58
2021/10/09 14:06:36;;;;;;;11.33;10.23;;;25.30;70.60;;;;;;5052222;28;20175;-56
2021/10/09 14:09:03;;;;;;;12.27;9.90;;;24.80;68.40;;;;;;5053245;28;20194;-52
2021/10/09 14:11:29;;;;;;;11.00;9.93;;;24.50;70.00;;;;;;5052725;28;20699;-57
2021/10/09 14:13:55;;;;;;;13.27;9.73;;;23.00;72.10;;;;;;5052957;28;20409;-57
2021/10/09 14:16:20;;;;;;;10.80;9.77;;;22.60;73.80;;;;;;5053411;28;20173;-55
2021/10/09 14:18:47;;;;;;;14.03;10.17;;;21.50;76.40;;;;;;5053037;28;20492;-55
2021/10/09 14:21:12;;;;;;;11.57;10.33;;;20.80;78.40;;;;;;5052652;28;20700;-52
2021/10/09 14:23:39;;;;;;;10.07;9.00;;;20.50;79.20;;;;;;5053430;28;20413;-54
2021/10/09 14:26:05;;;;;;;12.60;10.00;;;20.10;80.30;;;;;;5053080;28;20171;-54
2021/10/09 14:28:31;;;;;;;12.60;11.30;;;19.50;81.90;;;;;;5052965;28;20463;-53
2021/10/09 14:30:56;;;;;;;11.40;9.77;;;19.00;84.40;;;;;;5053356;28;20194;-51
2021/10/09 14:33:22;;;;;;;13.43;10.27;;;18.90;88.00;;;;;;5052943;28;20178;-56
2021/10/09 14:35:48;;;;;;;19.10;10.90;;;18.90;86.60;;;;;;5053061;28;20177;-56
2021/10/09 14:38:14;;;;;;;10.97;9.80;;;18.80;87.30;;;;;;5053482;28;20753;-55
2021/10/09 14:40:42;;;;;;;13.00;10.27;;;18.80;87.30;;;;;;5052705;28;20185;-56
2021/10/09 14:43:08;;;;;;;11.27;10.10;;;19.00;88.10;;;;;;5097479;22;20975;-54
2021/10/09 14:45:34;;;;;;;10.97;9.87;;;18.70;89.80;;;;;;5092534;28;20410;-58